Time;durP1;ratioP1;P1;durP2;ratioP2;P2;SDS_P1;SDS_P2;PMS_P1;PMS_P2;Temp;Humidity;BMP_temperature;BMP_pressure;BME280_temperature;BME280_humidity;BME280_pressure;Samples;Min_cycle;Max_cycle;Signal;HPM_P1;HPM_P2
2023/01/23 00:04:22;;;;;;;192.00;25.03;;;;;;;-1.88;100.00;98020.31;10454583;28;20196;-74
2023/01/23 00:09:23;;;;;;;88.07;20.37;;;;;;;-1.86;100.00;98021.09;10454161;28;20217;-74
2023/01/23 00:14:23;;;;;;;113.03;20.60;;;;;;;-1.87;100.00;98011.75;10453588;28;20198;-74
2023/01/23 00:19:23;;;;;;;135.57;21.20;;;;;;;-1.85;100.00;98027.94;10453032;28;20642;-74
2023/01/23 00:24:24;;;;;;;54.87;19.27;;;;;;;-1.81;100.00;98037.22;10453889;28;20299;-75
2023/01/23 00:29:24;;;;;;;58.73;19.07;;;;;;;-1.82;100.00;98038.13;10453086;28;20223;-74
2023/01/23 00:34:24;;;;;;;165.27;20.23;;;;;;;-1.83;100.00;98046.69;10453116;28;20192;-75
2023/01/23 00:39:25;;;;;;;395.53;30.10;;;;;;;-1.87;100.00;98042.56;10452665;28;20289;-74
2023/01/23 00:44:25;;;;;;;253.07;24.03;;;;;;;-1.88;100.00;98030.59;10451723;28;20583;-74
2023/01/23 00:49:26;;;;;;;46.87;18.40;;;;;;;-1.90;100.00;98040.09;10450689;28;20266;-73
2023/01/23 00:54:26;;;;;;;149.37;24.40;;;;;;;-1.92;100.00;98041.00;10452391;28;20196;-74
2023/01/23 00:59:26;;;;;;;116.50;21.70;;;;;;;-1.88;100.00;98042.59;10451622;28;20184;-74
2023/01/23 01:04:27;;;;;;;54.27;18.00;;;;;;;-1.83;100.00;98054.41;10451508;28;20593;-74
2023/01/23 01:09:27;;;;;;;155.80;22.20;;;;;;;-1.87;100.00;98059.69;10465983;28;20230;-75
2023/01/23 01:14:28;;;;;;;45.93;17.57;;;;;;;-1.81;100.00;98064.63;10451017;28;20203;-73
2023/01/23 01:19:28;;;;;;;73.13;20.57;;;;;;;-1.81;100.00;98064.63;10451160;28;20188;-75
2023/01/23 01:24:28;;;;;;;109.87;19.90;;;;;;;-1.81;100.00;98080.03;10451037;28;20259;-74
2023/01/23 01:29:29;;;;;;;136.07;20.30;;;;;;;-1.85;100.00;98094.72;10449016;28;20215;-74
2023/01/23 01:34:29;;;;;;;177.77;19.80;;;;;;;-1.82;100.00;98097.19;10449273;28;20755;-74
2023/01/23 01:39:30;;;;;;;144.13;19.20;;;;;;;-1.81;100.00;98095.44;10448506;28;20239;-74
2023/01/23 01:44:51;;;;;;;178.40;20.20;;;;;;;-1.86;100.00;98105.84;10449789;28;20210;-74
2023/01/23 01:49:54;;;;;;;179.27;19.90;;;;;;;-1.83;100.00;98110.06;10465303;28;20219;-75
2023/01/23 01:54:58;;;;;;;74.63;17.60;;;;;;;-1.80;100.00;98107.41;10448478;28;20192;-74
2023/01/23 02:00:06;;;;;;;89.60;18.70;;;;;;;-1.84;100.00;98114.38;10448847;28;20283;-74
2023/01/23 02:05:34;;;;;;;257.53;25.20;;;;;;;-1.78;100.00;98115.06;10449653;28;20192;-75
2023/01/23 02:10:36;;;;;;;474.40;31.13;;;;;;;-1.78;100.00;98125.34;10446716;28;20229;-74
2023/01/23 02:15:37;;;;;;;251.93;24.03;;;;;;;-1.78;100.00;98128.75;10431759;28;20267;-74
2023/01/23 02:20:38;;;;;;;184.33;20.53;;;;;;;-1.71;100.00;98127.69;10447870;28;20253;-74
2023/01/23 02:25:41;;;;;;;397.87;29.87;;;;;;;-1.81;100.00;98139.97;10448815;28;20246;-74
2023/01/23 02:30:45;;;;;;;544.63;29.23;;;;;;;-1.82;100.00;98143.41;10447464;28;20207;-75
2023/01/23 02:35:47;;;;;;;232.23;21.93;;;;;;;-1.74;100.00;98147.50;10447284;28;20261;-74
2023/01/23 02:40:48;;;;;;;119.20;18.60;;;;;;;-1.73;100.00;98146.59;10447175;28;20258;-74
2023/01/23 02:45:53;;;;;;;327.00;26.23;;;;;;;-1.77;100.00;98142.47;10463703;28;20208;-74
2023/01/23 02:50:54;;;;;;;195.67;19.80;;;;;;;-1.75;100.00;98148.38;10463796;28;20203;-74
2023/01/23 02:55:55;;;;;;;71.60;16.27;;;;;;;-1.74;100.00;98144.94;10463708;28;20184;-73
2023/01/23 03:00:56;;;;;;;115.23;18.07;;;;;;;-1.67;100.00;98137.00;10471899;28;20276;-74
2023/01/23 03:05:58;;;;;;;134.43;19.50;;;;;;;-1.73;100.00;98139.75;10454721;28;20216;-74
2023/01/23 03:11:00;;;;;;;351.33;29.80;;;;;;;-1.77;100.00;98127.88;10453746;28;20184;-75
2023/01/23 03:16:00;;;;;;;256.60;22.23;;;;;;;-1.68;100.00;98134.47;10454277;28;20283;-74
2023/01/23 03:21:03;;;;;;;165.63;19.00;;;;;;;-1.71;100.00;98139.72;10470892;28;20188;-74
2023/01/23 03:26:03;;;;;;;301.60;21.90;;;;;;;-1.76;100.00;98139.84;10454980;28;20219;-74
2023/01/23 03:31:05;;;;;;;227.03;23.23;;;;;;;-1.76;100.00;98138.97;10471453;28;20195;-74
2023/01/23 03:36:06;;;;;;;71.77;17.33;;;;;;;-1.75;100.00;98135.53;10454615;28;20634;-74
2023/01/23 03:41:25;;;;;;;113.90;18.37;;;;;;;-1.75;100.00;98153.53;10453792;28;20284;-74
2023/01/23 03:46:28;;;;;;;182.10;21.90;;;;;;;-1.75;100.00;98161.22;10453590;28;20311;-75
2023/01/23 03:51:28;;;;;;;71.27;17.27;;;;;;;-1.74;100.00;98162.91;10453119;28;20188;-75
2023/01/23 03:56:28;;;;;;;264.93;22.67;;;;;;;-1.71;100.00;98173.94;10452986;28;20180;-74
2023/01/23 04:01:30;;;;;;;141.47;18.97;;;;;;;-1.71;100.00;98186.78;10469090;28;20722;-74
2023/01/23 04:06:31;;;;;;;115.23;16.67;;;;;;;-1.66;100.00;98186.66;10447976;28;20262;-72
2023/01/23 04:11:31;;;;;;;233.43;22.33;;;;;;;-1.69;100.00;98179.03;10444775;28;20200;-74
2023/01/23 04:16:32;;;;;;;82.80;15.73;;;;;;;-1.67;100.00;98185.81;10443540;28;20472;-74
2023/01/23 04:21:33;;;;;;;71.93;16.93;;;;;;;-1.66;100.00;98178.94;10445967;28;20179;-74
2023/01/23 04:26:34;;;;;;;72.00;18.40;;;;;;;-1.72;100.00;98181.69;10444332;28;20224;-74
2023/01/23 04:31:35;;;;;;;100.87;17.07;;;;;;;-1.70;100.00;98191.03;10445048;28;20564;-74
2023/01/23 04:36:35;;;;;;;82.57;16.67;;;;;;;-1.67;100.00;98182.38;10444611;28;20182;-74
2023/01/23 04:41:36;;;;;;;138.97;17.50;;;;;;;-1.70;100.00;98187.63;10427548;28;20294;-74
2023/01/23 04:46:43;;;;;;;150.70;17.90;;;;;;;-1.71;100.00;98191.09;10444015;28;20592;-74
2023/01/23 04:51:48;;;;;;;95.73;17.50;;;;;;;-1.68;100.00;98202.09;10444381;28;20202;-75
2023/01/23 04:56:51;;;;;;;71.53;15.77;;;;;;;-1.70;100.00;98205.59;10443908;28;20188;-74
2023/01/23 05:01:53;;;;;;;190.33;21.90;;;;;;;-1.78;100.00;98200.69;10465077;28;20194;-75
2023/01/23 05:06:54;;;;;;;114.93;17.20;;;;;;;-1.72;100.00;98208.22;10483081;28;20211;-75
2023/01/23 05:11:55;;;;;;;108.70;18.37;;;;;;;-1.68;100.00;98221.84;10484477;28;20191;-75
2023/01/23 05:16:58;;;;;;;99.70;16.00;;;;;;;-1.66;100.00;98217.47;10483849;28;20731;-75
2023/01/23 05:22:09;;;;;;;168.50;18.13;;;;;;;-1.72;100.00;98227.94;10484258;28;20553;-75
2023/01/23 05:27:09;;;;;;;111.73;17.63;;;;;;;-1.72;100.00;98230.50;10485280;28;20212;-75
2023/01/23 05:32:13;;;;;;;66.47;16.67;;;;;;;-1.71;100.00;98219.34;10483536;28;20567;-74
2023/01/23 05:37:16;;;;;;;232.17;21.23;;;;;;;-1.70;100.00;98221.00;10484364;28;20307;-75
2023/01/23 05:42:20;;;;;;;158.07;19.27;;;;;;;-1.69;100.00;98231.25;10482841;28;20321;-74
2023/01/23 05:47:47;;;;;;;216.03;18.83;;;;;;;-1.69;100.00;98227.84;10460547;28;20686;-74
2023/01/23 05:52:51;;;;;;;156.47;20.13;;;;;;;-1.70;100.00;98228.72;10483764;28;20189;-75
2023/01/23 05:57:52;;;;;;;125.30;19.40;;;;;;;-1.70;100.00;98231.28;10482717;28;20187;-75
2023/01/23 06:03:11;;;;;;;215.73;21.80;;;;;;;-1.63;100.00;98240.53;10484096;28;20655;-75
2023/01/23 06:08:22;;;;;;;438.17;26.50;;;;;;;-1.74;100.00;98245.13;10482140;28;20306;-72
2023/01/23 06:13:25;;;;;;;287.73;23.47;;;;;;;-1.75;100.00;98248.56;10482022;28;20187;-75
2023/01/23 06:18:26;;;;;;;352.93;30.53;;;;;;;-1.76;100.00;98252.88;10478662;28;20502;-75
2023/01/23 06:23:27;;;;;;;442.20;26.40;;;;;;;-1.80;100.00;98262.38;10441169;28;20512;-75
2023/01/23 06:28:28;;;;;;;498.83;29.17;;;;;;;-1.80;100.00;98267.50;10441530;28;20217;-74
2023/01/23 06:33:29;;;;;;;243.00;22.13;;;;;;;-1.74;100.00;98278.53;10440309;28;20592;-75
2023/01/23 06:38:30;;;;;;;296.60;23.53;;;;;;;-1.76;100.00;98283.69;10440122;28;20695;-74
2023/01/23 06:43:31;;;;;;;323.03;24.83;;;;;;;-1.81;100.00;98288.09;10424352;28;20668;-74
2023/01/23 06:48:32;;;;;;;352.47;28.50;;;;;;;-1.85;100.00;98300.19;10439207;28;20219;-75
2023/01/23 06:53:33;;;;;;;534.20;33.57;;;;;;;-1.91;100.00;98309.78;10440385;28;20654;-75
2023/01/23 06:58:34;;;;;;;270.27;24.37;;;;;;;-1.81;100.00;98327.50;10439537;28;20275;-74
2023/01/23 07:03:35;;;;;;;387.47;27.77;;;;;;;-1.77;100.00;98341.09;10439654;28;20192;-75
2023/01/23 07:08:36;;;;;;;445.27;28.27;;;;;;;-1.75;100.00;98346.19;10439499;28;20217;-73
2023/01/23 07:13:36;;;;;;;454.93;36.10;;;;;;;-1.81;100.00;98353.19;10439143;28;20188;-74
2023/01/23 07:18:38;;;;;;;244.60;22.50;;;;;;;-1.75;100.00;98367.56;10439596;28;20604;-75
2023/01/23 07:23:41;;;;;;;386.83;28.33;;;;;;;-1.68;100.00;98376.81;10439686;28;20274;-73
2023/01/23 07:28:42;;;;;;;231.73;26.40;;;;;;;-1.42;100.00;98388.16;10440673;28;20695;-75
2023/01/23 07:33:42;;;;;;;88.97;20.30;;;;;;;-1.47;100.00;98390.84;10440966;28;20203;-75
2023/01/23 07:38:43;;;;;;;77.93;18.67;;;;;;;-1.48;100.00;98386.56;10438341;28;20616;-75
2023/01/23 07:43:43;;;;;;;135.97;20.97;;;;;;;-1.47;100.00;98385.72;10442289;28;20357;-74
2023/01/23 07:48:44;;;;;;;144.33;23.73;;;;;;;-1.53;100.00;98375.59;10447694;28;20229;-74
2023/01/23 07:53:44;;;;;;;137.10;21.07;;;;;;;-1.56;100.00;98385.09;10448156;28;20681;-75
2023/01/23 07:58:48;;;;;;;231.50;24.77;;;;;;;-1.55;100.00;98391.91;10459309;28;20680;-75
2023/01/23 08:03:48;;;;;;;200.93;21.63;;;;;;;-1.60;100.00;98389.47;10452509;28;20195;-75
2023/01/23 08:08:49;;;;;;;183.77;23.13;;;;;;;-1.57;100.00;98389.38;10446264;28;20223;-74
2023/01/23 08:13:49;;;;;;;86.40;19.63;;;;;;;-1.49;100.00;98390.03;10477232;28;20224;-74
2023/01/23 08:18:50;;;;;;;263.57;25.20;;;;;;;-1.50;100.00;98395.19;10487100;28;20190;-74
2023/01/23 08:23:50;;;;;;;422.10;29.40;;;;;;;-1.52;100.00;98389.28;10486847;28;20194;-74
2023/01/23 08:28:50;;;;;;;290.90;28.67;;;;;;;-1.52;100.00;98396.97;10485381;28;20493;-74
2023/01/23 08:33:51;;;;;;;359.07;28.70;;;;;;;-1.48;100.00;98396.84;10486732;28;20326;-74
2023/01/23 08:38:51;;;;;;;403.10;29.87;;;;;;;-1.44;100.00;98395.91;10485812;28;20231;-74
2023/01/23 08:43:51;;;;;;;200.47;23.43;;;;;;;-1.47;100.00;98401.13;10469374;28;20782;-74
2023/01/23 08:48:52;;;;;;;229.57;25.23;;;;;;;-1.45;100.00;98403.66;10444702;28;20715;-74
2023/01/23 08:53:52;;;;;;;272.57;28.07;;;;;;;-1.41;100.00;98405.25;10442521;28;20668;-74
2023/01/23 08:58:52;;;;;;;333.00;27.57;;;;;;;-1.35;100.00;98406.81;10441326;28;20698;-74
2023/01/23 09:03:53;;;;;;;436.20;33.60;;;;;;;-1.36;100.00;98402.56;10470321;28;20221;-74
2023/01/23 09:08:54;;;;;;;443.03;32.90;;;;;;;-1.34;100.00;98426.50;10483357;28;20221;-74
2023/01/23 09:13:54;;;;;;;613.40;44.13;;;;;;;-1.39;100.00;98442.06;10484053;28;20201;-74
2023/01/23 09:18:55;;;;;;;265.07;30.77;;;;;;;-1.33;100.00;98431.59;10451010;28;20292;-74
2023/01/23 09:23:55;;;;;;;158.97;25.43;;;;;;;-1.24;100.00;98434.81;10449966;28;20195;-74
2023/01/23 09:28:56;;;;;;;146.83;26.40;;;;;;;-1.23;100.00;98428.78;10449915;28;20208;-75
2023/01/23 09:33:56;;;;;;;262.47;30.50;;;;;;;-1.19;100.00;98417.56;10449816;28;20202;-75
2023/01/23 09:38:56;;;;;;;112.57;27.50;;;;;;;-1.09;100.00;98424.13;10433985;28;20750;-76
2023/01/23 09:44:00;;;;;;;205.07;28.23;;;;;;;-1.09;100.00;98424.97;10437245;28;20192;-78
2023/01/23 09:49:28;;;;;;;201.47;31.30;;;;;;;-1.09;100.00;98419.84;10430312;28;20312;-78
2023/01/23 09:54:46;;;;;;;564.27;41.77;;;;;;;-1.21;100.00;98421.88;10447411;28;20603;-78
2023/01/23 09:59:50;;;;;;;124.37;27.93;;;;;;;-1.10;100.00;98407.03;10434547;28;20221;-79
2023/01/23 10:04:51;;;;;;;229.27;28.43;;;;;;;-1.19;100.00;98405.53;10433106;28;20283;-78
2023/01/23 10:10:17;;;;;;;184.83;29.53;;;;;;;-1.12;100.00;98403.63;10417976;28;20228;-74
2023/01/23 10:15:21;;;;;;;186.17;28.23;;;;;;;-0.99;100.00;98389.56;10430280;28;20192;-75
2023/01/23 10:20:49;;;;;;;185.03;30.27;;;;;;;-1.13;100.00;98395.06;10456977;28;20223;-75
2023/01/23 10:25:50;;;;;;;168.70;31.00;;;;;;;-1.03;100.00;98384.53;10488388;28;20207;-75
2023/01/23 10:30:55;;;;;;;129.60;26.90;;;;;;;-1.00;100.00;98392.16;10489704;28;20203;-74
2023/01/23 10:36:00;;;;;;;74.23;24.20;;;;;;;-0.91;100.00;98391.91;10486617;28;20208;-75
2023/01/23 10:41:13;;;;;;;71.13;24.77;;;;;;;-0.97;100.00;98381.78;10446451;28;20235;-75
2023/01/23 10:46:15;;;;;;;89.90;23.90;;;;;;;-0.97;100.00;98381.78;10462918;28;20218;-75
2023/01/23 10:51:49;;;;;;;110.53;26.67;;;;;;;-1.08;100.00;98374.38;10449038;28;20195;-75
2023/01/23 10:57:06;;;;;;;92.37;27.27;;;;;;;-0.95;100.00;98369.72;10447194;28;20201;-76
2023/01/23 11:02:12;;;;;;;235.10;27.47;;;;;;;-1.08;100.00;98364.91;10449100;28;20731;-76
2023/01/23 11:07:19;;;;;;;109.37;26.03;;;;;;;-0.84;100.00;98364.25;10448650;28;20722;-76
2023/01/23 11:12:25;;;;;;;84.77;26.40;;;;;;;-0.73;100.00;98360.50;10448887;28;20192;-76
2023/01/23 11:17:32;;;;;;;119.30;27.13;;;;;;;-0.83;100.00;98363.38;10449557;28;20181;-76
2023/01/23 11:22:35;;;;;;;134.40;26.20;;;;;;;-0.92;100.00;98336.19;10456646;28;20194;-76
2023/01/23 11:27:36;;;;;;;105.00;24.80;;;;;;;-0.86;100.00;98328.28;10456135;28;20694;-77
2023/01/23 11:32:50;;;;;;;123.73;25.67;;;;;;;-0.90;100.00;98331.84;10455198;28;20191;-74
2023/01/23 11:37:52;;;;;;;95.17;24.87;;;;;;;-0.96;100.00;98332.03;10454033;28;20214;-76
2023/01/23 11:42:53;;;;;;;113.53;25.77;;;;;;;-1.02;100.00;98333.06;10455986;28;20616;-78
2023/01/23 11:48:06;;;;;;;107.27;25.40;;;;;;;-1.06;100.00;98325.47;10457551;28;20262;-76
2023/01/23 11:53:18;;;;;;;108.60;25.50;;;;;;;-0.94;100.00;98323.38;10413454;28;20608;-79
2023/01/23 11:58:29;;;;;;;90.97;24.73;;;;;;;-0.92;100.00;98323.31;10445012;28;20211;-80
2023/01/23 12:03:57;;;;;;;73.97;23.27;;;;;;;-0.79;100.00;98329.78;10454462;28;20200;-77
2023/01/23 12:09:11;;;;;;;73.33;23.10;;;;;;;-0.75;100.00;98325.38;10454850;28;20240;-80
2023/01/23 12:14:15;;;;;;;69.10;23.53;;;;;;;-0.80;100.00;98315.25;10454822;28;20202;-80
2023/01/23 12:19:27;;;;;;;59.27;22.47;;;;;;;-0.82;100.00;98311.88;10452876;28;20190;-78
2023/01/23 12:24:43;;;;;;;62.50;22.90;;;;;;;-0.81;100.00;98303.28;10454233;28;20668;-77
2023/01/23 12:29:46;;;;;;;74.30;31.60;;;;;;;-0.86;100.00;98301.72;10452942;28;20630;-76
2023/01/23 12:35:07;;;;;;;82.37;23.63;;;;;;;-0.95;100.00;98292.53;10453889;28;20192;-76
2023/01/23 12:40:23;;;;;;;54.70;20.80;;;;;;;-0.87;100.00;98294.88;10453625;28;20236;-76
2023/01/23 12:45:25;;;;;;;61.67;23.37;;;;;;;-0.80;100.00;98299.81;10452252;28;20198;-76
2023/01/23 12:50:43;;;;;;;58.83;21.50;;;;;;;-0.80;100.00;98296.41;10453177;28;20707;-76
2023/01/23 12:56:09;;;;;;;76.47;22.33;;;;;;;-0.80;100.00;98297.22;10451919;28;20198;-76
2023/01/23 13:01:48;;;;;;;61.30;23.27;;;;;;;-0.83;100.00;98296.50;10473608;28;20622;-76
2023/01/23 13:07:12;;;;;;;90.87;25.60;;;;;;;-0.99;100.00;98294.38;10492723;28;20697;-76
2023/01/23 13:12:24;;;;;;;80.50;23.27;;;;;;;-0.94;100.00;98296.81;10470911;28;20249;-76
2023/01/23 13:17:38;;;;;;;95.93;24.97;;;;;;;-1.09;100.00;98304.09;10466269;28;20187;-75
2023/01/23 13:22:39;;;;;;;93.70;23.67;;;;;;;-1.10;100.00;98309.28;10468486;28;20201;-76
2023/01/23 13:27:49;;;;;;;74.23;20.13;;;;;;;-1.07;100.00;98304.06;10472697;28;20228;-76
2023/01/23 13:33:00;;;;;;;72.87;22.30;;;;;;;-1.03;100.00;98312.50;10468028;28;20565;-75
2023/01/23 13:38:21;;;;;;;89.97;24.03;;;;;;;-1.06;100.00;98313.44;10448775;28;20326;-75
2023/01/23 13:43:49;;;;;;;70.37;25.30;;;;;;;-1.03;100.00;98317.66;10442964;28;20230;-75
2023/01/23 13:59:37;;;;;;;64.27;21.53;;;;;;;-1.19;100.00;98318.09;10452832;28;20187;-75
2023/01/23 14:10:01;;;;;;;61.53;23.13;;;;;;;-1.09;100.00;98309.25;10490610;28;20654;-75
2023/01/23 14:20:21;;;;;;;62.17;21.23;;;;;;;-1.02;100.00;98314.22;10490177;28;20185;-75
2023/01/23 14:25:21;;;;;;;63.60;22.27;;;;;;;-1.13;100.00;98305.06;10489785;28;20663;-75
2023/01/23 14:30:25;;;;;;;80.70;23.20;;;;;;;-1.19;100.00;98310.38;10489526;28;20223;-75
2023/01/23 14:35:30;;;;;;;64.03;24.43;;;;;;;-1.25;100.00;98315.72;10489831;28;20194;-74
2023/01/23 14:40:31;;;;;;;65.10;23.13;;;;;;;-1.36;100.00;98317.72;10489315;28;20699;-75
2023/01/23 14:45:32;;;;;;;114.83;25.83;;;;;;;-1.39;100.00;98325.50;10490301;28;20187;-74
2023/01/23 14:50:33;;;;;;;101.03;27.87;;;;;;;-1.38;100.00;98328.03;10489335;28;20224;-74
2023/01/23 14:55:36;;;;;;;130.80;26.50;;;;;;;-1.43;100.00;98319.63;10489439;28;20192;-74
2023/01/23 15:00:37;;;;;;;107.03;24.27;;;;;;;-1.36;100.00;98334.00;10472976;28;20213;-75
2023/01/23 15:05:39;;;;;;;161.10;27.30;;;;;;;-1.40;100.00;98321.28;10476275;28;20209;-74
2023/01/23 15:10:40;;;;;;;116.93;25.47;;;;;;;-1.37;100.00;98332.31;10466801;28;20196;-75
2023/01/23 15:15:45;;;;;;;132.40;26.40;;;;;;;-1.33;100.00;98336.50;10456102;28;20195;-73
2023/01/23 15:21:01;;;;;;;133.57;25.90;;;;;;;-1.36;100.00;98334.00;10455625;28;21024;-73
2023/01/23 15:26:17;;;;;;;592.17;38.17;;;;;;;-1.41;100.00;98340.16;10458225;28;21829;-74
2023/01/23 15:31:35;;;;;;;86.30;24.90;;;;;;;-1.37;100.00;98346.91;10474268;28;20729;-73
2023/01/23 15:36:35;;;;;;;278.37;29.43;;;;;;;-1.33;100.00;98354.47;10471857;28;20191;-74
2023/01/23 15:41:38;;;;;;;232.03;27.23;;;;;;;-1.47;100.00;98357.44;10474633;28;20235;-74
2023/01/23 15:46:38;;;;;;;219.73;29.27;;;;;;;-1.47;100.00;98367.72;10467959;28;20227;-74
2023/01/23 15:51:38;;;;;;;138.37;27.80;;;;;;;-1.43;100.00;98373.59;10472583;28;20679;-74
2023/01/23 15:56:41;;;;;;;409.87;33.50;;;;;;;-1.48;100.00;98372.91;10474426;28;20180;-75
2023/01/23 16:01:42;;;;;;;650.97;50.70;;;;;;;-1.42;100.00;98371.88;10473473;28;20196;-75
2023/01/23 16:06:43;;;;;;;560.60;46.60;;;;;;;-1.49;100.00;98381.47;10461089;28;20235;-75
2023/01/23 16:11:43;;;;;;;204.83;27.17;;;;;;;-1.45;100.00;98391.63;10458420;28;20286;-75
2023/01/23 16:16:44;;;;;;;558.07;42.70;;;;;;;-1.37;100.00;98400.88;10494474;28;20189;-75
2023/01/23 16:21:45;;;;;;;302.53;30.23;;;;;;;-1.47;100.00;98402.84;10494381;28;20282;-75
2023/01/23 16:26:47;;;;;;;164.63;26.67;;;;;;;-1.37;100.00;98412.00;10494138;28;20610;-74
2023/01/23 16:31:47;;;;;;;250.87;30.90;;;;;;;-1.46;100.00;98415.63;10495206;28;20191;-75
2023/01/23 16:36:50;;;;;;;279.80;31.73;;;;;;;-1.56;100.00;98424.50;10470864;28;20188;-74
2023/01/23 16:41:53;;;;;;;256.27;31.33;;;;;;;-1.55;100.00;98433.03;10448677;28;20266;-75
2023/01/23 16:46:53;;;;;;;375.33;36.17;;;;;;;-1.55;100.00;98436.44;10462842;28;20223;-75
2023/01/23 16:51:56;;;;;;;275.97;29.43;;;;;;;-1.55;100.00;98446.72;10465568;28;20183;-75
2023/01/23 16:56:57;;;;;;;126.97;25.93;;;;;;;-1.43;100.00;98448.16;10467303;28;20207;-75
2023/01/23 17:01:58;;;;;;;216.80;31.57;;;;;;;-1.48;100.00;98448.25;10472420;28;20200;-75
2023/01/23 17:06:59;;;;;;;240.93;30.13;;;;;;;-1.50;100.00;98454.31;10469716;28;20212;-75
2023/01/23 17:11:59;;;;;;;147.73;27.17;;;;;;;-1.51;100.00;98448.34;10475496;28;20195;-74
2023/01/23 17:17:02;;;;;;;169.83;28.87;;;;;;;-1.51;100.00;98458.63;10493950;28;20183;-75
2023/01/23 17:22:03;;;;;;;103.87;26.80;;;;;;;-1.50;100.00;98467.16;10493075;28;20421;-75
2023/01/23 17:27:04;;;;;;;157.17;29.17;;;;;;;-1.52;100.00;98469.78;10494200;28;20223;-75
2023/01/23 17:32:04;;;;;;;149.67;27.60;;;;;;;-1.52;100.00;98472.34;10494123;28;20706;-75
2023/01/23 17:37:14;;;;;;;146.40;27.23;;;;;;;-1.49;100.00;98482.53;10493310;28;20668;-74
2023/01/23 17:42:15;;;;;;;104.10;25.27;;;;;;;-1.48;100.00;98480.84;10492124;28;20238;-74
2023/01/23 17:47:15;;;;;;;171.67;31.87;;;;;;;-1.58;100.00;98472.50;10493056;28;20218;-75
2023/01/23 17:52:16;;;;;;;132.17;33.27;;;;;;;-1.59;100.00;98491.38;10491864;28;20199;-75
2023/01/23 17:57:16;;;;;;;101.80;27.57;;;;;;;-1.57;100.00;98494.75;10492135;28;20183;-74
2023/01/23 18:02:23;;;;;;;141.80;30.27;;;;;;;-1.56;100.00;98485.31;10492612;28;20281;-74
2023/01/23 18:07:23;;;;;;;286.03;35.20;;;;;;;-1.57;100.00;98484.47;10491421;28;20227;-75
2023/01/23 18:12:33;;;;;;;128.00;27.27;;;;;;;-1.63;100.00;98484.63;10492286;28;20283;-74
2023/01/23 18:17:47;;;;;;;118.20;27.13;;;;;;;-1.52;100.00;98484.34;10491338;28;20194;-74
2023/01/23 18:22:48;;;;;;;124.83;35.93;;;;;;;-1.57;100.00;98484.47;10470919;28;20290;-74
2023/01/23 18:27:52;;;;;;;190.20;41.77;;;;;;;-1.62;100.00;98488.88;10463652;28;20224;-74
2023/01/23 18:33:14;;;;;;;134.97;31.20;;;;;;;-1.58;100.00;98481.94;10468408;28;20195;-74
2023/01/23 18:38:18;;;;;;;196.43;36.57;;;;;;;-1.65;100.00;98487.22;10466076;28;20223;-75
2023/01/23 18:43:27;;;;;;;176.83;37.40;;;;;;;-1.66;100.00;98492.41;10467172;28;20184;-74
2023/01/23 18:48:28;;;;;;;106.57;32.50;;;;;;;-1.56;100.00;98490.44;10465352;28;20219;-74
2023/01/23 18:53:48;;;;;;;108.77;32.53;;;;;;;-1.54;100.00;98488.69;10464936;28;20227;-74
2023/01/23 18:59:02;;;;;;;100.70;27.50;;;;;;;-1.61;100.00;98487.97;10451164;28;20208;-74
2023/01/23 19:04:06;;;;;;;119.20;28.33;;;;;;;-1.57;100.00;98492.19;10449148;28;20187;-74
2023/01/23 19:09:20;;;;;;;86.97;24.10;;;;;;;-1.59;100.00;98486.25;10447821;28;20223;-74
2023/01/23 19:14:20;;;;;;;113.17;27.47;;;;;;;-1.67;100.00;98489.00;10448910;28;20199;-74
2023/01/23 19:19:30;;;;;;;82.10;25.30;;;;;;;-1.56;100.00;98480.16;10448251;28;20188;-74
2023/01/23 19:24:31;;;;;;;99.47;24.33;;;;;;;-1.50;100.00;98488.59;10447691;28;20435;-74
2023/01/23 19:29:31;;;;;;;85.47;24.63;;;;;;;-1.58;100.00;98489.66;10447866;28;20701;-74
2023/01/23 19:34:32;;;;;;;99.40;26.20;;;;;;;-1.55;100.00;98482.69;10448340;28;20254;-74
2023/01/23 19:39:33;;;;;;;111.00;27.03;;;;;;;-1.49;100.00;98492.81;10450540;28;20274;-74
2023/01/23 19:44:33;;;;;;;116.17;26.63;;;;;;;-1.68;100.00;98501.88;10456358;28;20188;-74
2023/01/23 19:49:34;;;;;;;129.77;29.70;;;;;;;-1.61;100.00;98498.25;10455225;28;20232;-74
2023/01/23 19:54:35;;;;;;;96.87;26.30;;;;;;;-1.62;100.00;98499.16;10455775;28;20198;-74
2023/01/23 19:59:35;;;;;;;101.63;24.67;;;;;;;-1.62;100.00;98512.00;10455857;28;20233;-74
2023/01/23 20:04:36;;;;;;;149.03;28.47;;;;;;;-1.68;100.00;98507.03;10454959;28;20196;-74
2023/01/23 20:09:36;;;;;;;277.60;35.60;;;;;;;-1.73;100.00;98509.69;10455152;28;20226;-74
2023/01/23 20:14:36;;;;;;;157.13;29.60;;;;;;;-1.65;100.00;98518.06;10455116;28;20196;-74
2023/01/23 20:19:37;;;;;;;117.80;27.13;;;;;;;-1.59;100.00;98509.38;10436483;28;20188;-75
2023/01/23 20:24:38;;;;;;;121.57;28.10;;;;;;;-1.60;100.00;98511.97;10453099;28;20227;-74
2023/01/23 20:29:38;;;;;;;118.77;27.10;;;;;;;-1.62;100.00;98510.28;10453013;28;20226;-75
2023/01/23 20:34:38;;;;;;;113.40;26.77;;;;;;;-1.62;100.00;98506.88;10454103;28;20191;-74
2023/01/23 20:39:39;;;;;;;154.90;30.20;;;;;;;-1.64;100.00;98511.19;10453976;28;20228;-74
2023/01/23 20:44:40;;;;;;;174.37;28.70;;;;;;;-1.59;100.00;98501.66;10453727;28;20245;-75
2023/01/23 20:49:40;;;;;;;137.20;28.53;;;;;;;-1.59;100.00;98500.78;10452281;28;20311;-74
2023/01/23 20:54:40;;;;;;;171.67;30.67;;;;;;;-1.55;100.00;98510.13;10453428;28;20200;-75
2023/01/23 20:59:41;;;;;;;196.30;29.87;;;;;;;-1.60;100.00;98509.41;10452868;28;20195;-75
2023/01/23 21:04:42;;;;;;;231.43;28.80;;;;;;;-1.64;100.00;98503.47;10451715;28;20188;-75
2023/01/23 21:09:44;;;;;;;145.33;28.23;;;;;;;-1.58;100.00;98499.94;10451743;28;20219;-75
2023/01/23 21:14:44;;;;;;;125.33;27.23;;;;;;;-1.60;100.00;98496.56;10451185;28;20557;-75
2023/01/23 21:19:46;;;;;;;107.33;27.03;;;;;;;-1.61;100.00;98500.84;10452074;28;20192;-75
2023/01/23 21:24:46;;;;;;;115.27;27.10;;;;;;;-1.62;100.00;98500.00;10465446;28;20198;-75
2023/01/23 21:29:46;;;;;;;99.80;26.10;;;;;;;-1.62;100.00;98501.75;10493210;28;20211;-75
2023/01/23 21:34:47;;;;;;;109.73;27.50;;;;;;;-1.59;100.00;98501.66;10493961;28;20197;-75
2023/01/23 21:39:47;;;;;;;95.87;26.23;;;;;;;-1.60;100.00;98492.25;10493309;28;20223;-75
2023/01/23 21:44:51;;;;;;;88.97;24.70;;;;;;;-1.56;100.00;98499.03;10493308;28;20204;-75
2023/01/23 21:49:51;;;;;;;98.43;24.57;;;;;;;-1.53;100.00;98500.66;10491549;28;20687;-76
2023/01/23 21:54:52;;;;;;;102.23;26.20;;;;;;;-1.56;100.00;98491.31;10491530;28;20234;-76
2023/01/23 22:11:45;;;;;;;123.23;27.70;;;;;;;-1.62;100.00;98502.56;10447311;28;20200;-76
2023/01/23 22:16:45;;;;;;;85.10;24.87;;;;;;;-1.55;100.00;98508.41;10492538;28;20294;-76
2023/01/23 22:21:46;;;;;;;115.37;25.77;;;;;;;-1.58;100.00;98494.78;10491317;28;20256;-77
2023/01/23 22:26:46;;;;;;;140.33;28.77;;;;;;;-1.54;100.00;98502.38;10474266;28;20222;-76
2023/01/23 22:31:46;;;;;;;346.27;34.20;;;;;;;-1.62;100.00;98505.13;10491310;28;20187;-76
2023/01/23 22:36:47;;;;;;;124.20;27.33;;;;;;;-1.60;100.00;98505.09;10492359;28;20180;-76
2023/01/23 22:41:49;;;;;;;136.70;27.83;;;;;;;-1.59;100.00;98491.38;10489666;28;20310;-76
2023/01/23 22:46:50;;;;;;;174.23;30.37;;;;;;;-1.68;100.00;98504.44;10488955;28;20214;-76
2023/01/23 22:51:50;;;;;;;149.57;28.30;;;;;;;-1.66;100.00;98502.69;10490723;28;20193;-76
2023/01/23 22:56:51;;;;;;;131.57;27.77;;;;;;;-1.59;100.00;98508.50;10488643;28;20186;-77
2023/01/23 23:01:51;;;;;;;123.67;24.53;;;;;;;-1.52;100.00;98502.34;10490619;28;20191;-78
2023/01/23 23:06:51;;;;;;;328.27;33.90;;;;;;;-1.59;100.00;98517.09;10488715;28;20211;-77
2023/01/23 23:11:52;;;;;;;150.10;26.53;;;;;;;-1.53;100.00;98505.78;10490502;28;20198;-77